createdAt,value
2019-03-30T00:01:26.940Z,24.83
2019-03-30T00:06:45.570Z,24.77
2019-03-30T00:11:59.628Z,29.70
2019-03-30T00:17:24.009Z,29.23
2019-03-30T00:22:41.561Z,27.93
2019-03-30T00:27:59.889Z,27.40
2019-03-30T00:33:20.546Z,25.03
2019-03-30T00:38:38.532Z,22.57
2019-03-30T00:43:58.937Z,27.10
2019-03-30T00:49:22.211Z,26.87
2019-03-30T00:54:29.963Z,27.27
2019-03-30T00:59:55.283Z,25.40
2019-03-30T01:05:17.188Z,31.13
2019-03-30T01:10:40.770Z,32.80
2019-03-30T01:15:59.103Z,32.97
2019-03-30T01:21:21.412Z,32.53
2019-03-30T01:26:40.684Z,31.00
2019-03-30T01:31:58.928Z,27.73
2019-03-30T01:37:37.283Z,30.90
2019-03-30T01:42:58.134Z,29.90
2019-03-30T01:48:32.231Z,32.73
2019-03-30T01:54:06.149Z,35.33
2019-03-30T01:59:34.440Z,30.87
2019-03-30T02:04:52.481Z,30.20
2019-03-30T02:10:40.802Z,30.13
2019-03-30T02:16:12.273Z,32.60
2019-03-30T02:21:26.801Z,27.97
2019-03-30T02:26:43.012Z,33.10
2019-03-30T02:31:55.638Z,31.77
2019-03-30T02:37:08.109Z,27.30
2019-03-30T02:42:46.454Z,33.87
2019-03-30T02:48:00.646Z,27.67
2019-03-30T02:53:13.091Z,31.73
2019-03-30T02:58:28.457Z,28.50
2019-03-30T03:04:09.077Z,32.97
2019-03-30T03:09:36.148Z,31.17
2019-03-30T03:14:54.999Z,33.10
2019-03-30T03:20:13.894Z,34.03
2019-03-30T03:25:37.995Z,33.40
2019-03-30T03:30:57.702Z,29.93
2019-03-30T03:36:09.788Z,29.83
2019-03-30T03:41:37.770Z,35.17
2019-03-30T03:46:57.179Z,33.50
2019-03-30T03:52:13.399Z,36.33
2019-03-30T03:57:42.034Z,33.17
2019-03-30T04:03:03.567Z,37.17
2019-03-30T04:08:28.914Z,34.77
2019-03-30T04:13:42.448Z,33.50
2019-03-30T04:18:58.290Z,27.47
2019-03-30T04:24:09.949Z,32.03
2019-03-30T04:29:18.136Z,31.67
2019-03-30T04:34:33.371Z,33.63
2019-03-30T04:39:49.639Z,31.30
2019-03-30T04:45:03.831Z,31.93
2019-03-30T04:50:15.537Z,34.37
2019-03-30T04:55:44.388Z,35.03
2019-03-30T05:00:57.775Z,32.80
2019-03-30T05:06:14.506Z,33.40
2019-03-30T05:11:34.754Z,32.00
2019-03-30T05:16:52.102Z,28.73
2019-03-30T05:22:16.331Z,32.20
2019-03-30T05:27:28.425Z,29.17
2019-03-30T05:32:41.820Z,30.27
2019-03-30T05:38:01.720Z,30.90
2019-03-30T05:43:19.698Z,30.50
2019-03-30T05:48:40.705Z,26.47
2019-03-30T05:54:18.345Z,27.73
2019-03-30T05:59:35.856Z,24.87
2019-03-30T06:05:14.389Z,24.23
2019-03-30T06:10:47.807Z,24.20
2019-03-30T06:16:02.691Z,26.87
2019-03-30T06:21:14.720Z,25.80
2019-03-30T06:26:27.907Z,23.77
2019-03-30T06:31:46.655Z,22.80
2019-03-30T06:37:00.967Z,22.90
2019-03-30T06:42:13.409Z,22.50
2019-03-30T06:47:33.089Z,23.67
2019-03-30T06:52:58.074Z,18.73
2019-03-30T06:58:35.214Z,22.13
2019-03-30T07:03:55.564Z,18.07
2019-03-30T07:09:34.575Z,17.77
2019-03-30T07:14:47.336Z,18.37
2019-03-30T07:20:02.779Z,19.40
2019-03-30T07:25:17.608Z,18.07
2019-03-30T07:30:26.470Z,17.10
2019-03-30T07:35:36.208Z,17.73
2019-03-30T07:40:44.156Z,16.07
2019-03-30T07:46:19.620Z,16.73
2019-03-30T07:51:37.370Z,16.90
2019-03-30T07:57:05.033Z,17.27
2019-03-30T08:02:11.939Z,15.77
2019-03-30T08:07:26.603Z,15.53
2019-03-30T08:18:11.978Z,14.50
2019-03-30T08:23:39.572Z,14.87
2019-03-30T08:28:39.388Z,14.53
2019-03-30T08:34:09.455Z,12.77
2019-03-30T08:39:42.466Z,16.63
2019-03-30T08:44:56.347Z,13.27
2019-03-30T08:50:10.437Z,13.43
2019-03-30T08:55:22.657Z,15.20
2019-03-30T09:00:58.405Z,14.23
2019-03-30T09:06:34.277Z,14.10
2019-03-30T09:11:47.766Z,17.93
2019-03-30T09:16:58.125Z,15.13
2019-03-30T09:22:13.434Z,14.07
2019-03-30T09:27:29.923Z,14.73
2019-03-30T09:32:48.897Z,15.07
2019-03-30T09:38:03.049Z,14.47
2019-03-30T09:43:25.510Z,13.83
2019-03-30T09:49:04.133Z,15.33
2019-03-30T09:54:23.599Z,15.10
2019-03-30T09:59:39.528Z,14.10
2019-03-30T10:04:57.442Z,14.70
2019-03-30T10:10:20.141Z,16.02
2019-03-30T10:15:41.793Z,15.70
2019-03-30T10:21:05.636Z,14.80
2019-03-30T10:26:19.851Z,14.03
2019-03-30T10:31:59.792Z,13.85
2019-03-30T10:37:12.255Z,13.83
2019-03-30T10:42:27.461Z,13.78
2019-03-30T10:47:39.555Z,13.85
2019-03-30T10:52:52.069Z,14.43
2019-03-30T10:58:13.905Z,12.90
2019-03-30T11:03:28.932Z,13.10
2019-03-30T11:08:47.971Z,15.05
2019-03-30T11:14:08.430Z,13.98
2019-03-30T11:19:31.208Z,15.00
2019-03-30T11:24:46.383Z,15.85
2019-03-30T11:30:05.193Z,17.40
2019-03-30T11:35:42.881Z,13.05
2019-03-30T11:40:56.543Z,14.40
2019-03-30T11:46:23.683Z,14.87
2019-03-30T11:51:35.372Z,14.30
2019-03-30T11:56:49.377Z,17.92
2019-03-30T12:02:11.261Z,14.90
2019-03-30T12:07:23.442Z,13.83
2019-03-30T12:12:47.781Z,13.22
2019-03-30T12:18:03.192Z,13.48
2019-03-30T12:23:16.369Z,15.55
2019-03-30T12:28:29.339Z,12.05
2019-03-30T12:33:55.997Z,12.60
2019-03-30T12:39:12.492Z,12.80
2019-03-30T12:44:25.162Z,11.97
2019-03-30T12:49:40.579Z,12.25
2019-03-30T13:00:35.647Z,12.37
2019-03-30T13:05:49.028Z,10.93
2019-03-30T13:11:22.115Z,12.18
2019-03-30T13:16:35.535Z,10.25
2019-03-30T13:21:55.301Z,8.73
2019-03-30T13:27:07.735Z,11.63
2019-03-30T13:32:21.923Z,12.03
2019-03-30T13:37:53.563Z,12.07
2019-03-30T13:43:04.960Z,11.33
2019-03-30T13:48:30.532Z,10.70
2019-03-30T13:53:53.676Z,11.08
2019-03-30T13:59:09.280Z,12.65
2019-03-30T14:04:26.103Z,13.55
2019-03-30T14:09:43.319Z,11.22
2019-03-30T14:14:57.038Z,10.93
2019-03-30T14:20:07.355Z,12.55
2019-03-30T14:25:22.339Z,15.03
2019-03-30T14:30:40.183Z,13.95
2019-03-30T14:35:55.372Z,14.25
2019-03-30T14:41:10.089Z,15.65
2019-03-30T14:46:27.305Z,17.17
2019-03-30T14:52:06.440Z,18.90
2019-03-30T14:57:23.754Z,14.18
2019-03-30T15:02:36.092Z,16.02
2019-03-30T15:07:54.380Z,16.20
2019-03-30T15:13:14.567Z,16.77
2019-03-30T15:18:32.303Z,15.38
2019-03-30T15:23:47.556Z,14.58
2019-03-30T15:29:01.698Z,12.43
2019-03-30T15:34:50.913Z,11.97
2019-03-30T15:40:10.128Z,13.53
2019-03-30T15:45:24.789Z,15.88
2019-03-30T15:50:44.836Z,16.75
2019-03-30T15:55:59.951Z,21.10
2019-03-30T16:01:35.221Z,19.95
2019-03-30T16:06:47.044Z,18.67
2019-03-30T16:12:02.656Z,21.27
2019-03-30T16:17:16.899Z,109.57
2019-03-30T16:22:34.211Z,86.10
2019-03-30T16:27:42.284Z,25.85
2019-03-30T16:32:52.826Z,36.93
2019-03-30T16:38:04.965Z,27.15
2019-03-30T16:43:16.153Z,47.60
2019-03-30T16:48:29.963Z,25.25
2019-03-30T16:53:42.385Z,25.50
2019-03-30T16:58:58.053Z,25.05
2019-03-30T17:04:12.284Z,25.05
2019-03-30T17:09:27.320Z,25.10
2019-03-30T17:14:50.081Z,26.68
2019-03-30T17:20:05.885Z,24.07
2019-03-30T17:25:27.711Z,27.32
2019-03-30T17:30:35.654Z,25.75
2019-03-30T17:35:50.691Z,26.80
2019-03-30T17:41:22.361Z,27.40
2019-03-30T17:46:39.239Z,33.18
2019-03-30T17:51:55.581Z,44.48
2019-03-30T17:57:06.978Z,48.60
2019-03-30T18:02:39.909Z,51.00
2019-03-30T18:08:01.404Z,54.70
2019-03-30T18:13:11.505Z,54.95
2019-03-30T18:18:28.881Z,58.55
2019-03-30T18:23:47.395Z,55.77
2019-03-30T18:29:05.192Z,54.50
2019-03-30T18:34:23.010Z,54.50
2019-03-30T18:39:37.550Z,55.93
2019-03-30T18:44:45.385Z,55.23
2019-03-30T18:50:01.704Z,53.13
2019-03-30T18:55:23.024Z,53.83
2019-03-30T19:00:43.090Z,51.30
2019-03-30T19:05:57.132Z,52.70
2019-03-30T19:11:12.876Z,53.93
2019-03-30T19:16:23.927Z,54.27
2019-03-30T19:21:59.205Z,54.33
2019-03-30T19:27:17.417Z,49.53
2019-03-30T19:32:29.383Z,53.53
2019-03-30T19:37:43.736Z,56.10
2019-03-30T19:42:57.576Z,60.90
2019-03-30T19:48:25.381Z,53.97
2019-03-30T19:53:34.033Z,49.40
2019-03-30T19:58:54.589Z,66.00
2019-03-30T20:04:03.208Z,55.67
2019-03-30T20:09:16.067Z,58.50
2019-03-30T20:14:32.224Z,57.55
2019-03-30T20:20:27.429Z,60.03
2019-03-30T20:25:45.817Z,66.30
2019-03-30T20:30:57.958Z,64.60
2019-03-30T20:36:08.551Z,64.83
2019-03-30T20:41:14.454Z,72.33
2019-03-30T20:46:34.815Z,67.42
2019-03-30T20:51:58.560Z,66.40
2019-03-30T20:57:34.937Z,65.83
2019-03-30T21:02:57.232Z,66.37
2019-03-30T21:08:07.795Z,67.47
2019-03-30T21:13:27.498Z,63.73
2019-03-30T21:19:03.254Z,62.67
2019-03-30T21:24:16.709Z,59.23
2019-03-30T21:29:35.649Z,63.38
2019-03-30T21:34:54.535Z,61.87
2019-03-30T21:40:05.175Z,62.43
2019-03-30T21:45:22.274Z,60.75
2019-03-30T21:50:54.658Z,65.30
2019-03-30T21:56:13.768Z,60.37
2019-03-30T22:01:26.433Z,62.98
2019-03-30T22:06:52.534Z,60.93
2019-03-30T22:12:16.232Z,59.53
2019-03-30T22:17:31.053Z,62.48
2019-03-30T22:22:50.274Z,58.47
2019-03-30T22:28:09.556Z,60.03
2019-03-30T22:33:21.793Z,64.30
2019-03-30T22:38:42.956Z,59.37
2019-03-30T22:44:02.335Z,52.80
2019-03-30T22:49:17.965Z,52.00
2019-03-30T22:54:39.780Z,51.33
2019-03-30T22:59:56.875Z,58.55
2019-03-30T23:05:17.108Z,56.70
2019-03-30T23:10:38.627Z,58.52
2019-03-30T23:15:48.135Z,61.33
2019-03-30T23:21:01.351Z,58.03
2019-03-30T23:26:34.008Z,62.43
2019-03-30T23:31:54.917Z,55.50
2019-03-30T23:37:13.237Z,62.57
2019-03-30T23:42:28.140Z,62.33
2019-03-30T23:47:45.558Z,63.37
2019-03-30T23:53:07.264Z,67.97
2019-03-30T23:58:24.902Z,69.50
